NCAR-RAP Real-Time Weather Data

Output produced by METARs form (06 May 2021  16:52 UTC)
found at http://weather.rap.ucar.edu/surface/
 
KIPL 061553Z AUTO 17004KT 10SM CLR 25/11 A2993 RMK AO2 SLP135 T02500111
KIPL 061453Z AUTO 13007KT 10SM CLR 22/11 A2992 RMK AO2 SLP133 T02220111 53020
KIPL 061353Z AUTO 13005KT 10SM CLR 20/11 A2990 RMK AO2 SLP126 T02000106
KIPL 061253Z AUTO 09005KT 10SM CLR 18/09 A2987 RMK AO2 SLP116 T01830094
KIPL 061153Z AUTO 00000KT 10SM CLR 19/09 A2986 RMK AO2 SLP113 T01890089 10250 20183 53005
KIPL 061053Z AUTO 11004KT 10SM CLR 19/09 A2985 RMK AO2 SLP110 T01940089
KIPL 060953Z AUTO 11003KT 10SM CLR 20/08 A2984 RMK AO2 SLP107 T02000083
KIPL 060853Z AUTO 13004KT 10SM CLR 22/05 A2985 RMK AO2 SLP107 T02220050 58003
KIPL 060753Z AUTO 27003KT 10SM CLR 21/06 A2986 RMK AO2 SLP111 T02060061 403780150
KIPL 060653Z AUTO 27003KT 10SM CLR 22/06 A2986 RMK AO2 SLP111 T02220056
KIPL 060553Z AUTO 21003KT 10SM CLR 24/06 A2985 RMK AO2 SLP110 T02440056 10367 20239 51012
KIPL 060453Z AUTO 14007KT 10SM CLR 28/04 A2985 RMK AO2 SLP109 T02780044
KIPL 060353Z AUTO 14010KT 10SM CLR 29/04 A2983 RMK AO2 SLP104 T02890044